PWSweather.com
Personal Weather Stations
Station Observations
IPORTUGA89
BarosaPT

BarosaPT

Lat: 39.754028, Lon: -8.843

Elevation: 98

Station Type: Davis Vp2

High Low Average
Temperature 82.8°F28.2°C 59.4°F15.2°C 69.6°F20.9°C
Dew Point 66.6°F19.2°C 57.0°F13.9°C 61.6°F16.4°C
Winds 8.9 mph 14.3 kmh Calm Calm 4.0 mph WSW6.4 kmh WSW
Wind Gusts 16.1 mph25.9 kmh -- 8.0 mph12.9 kmh
Humidity 92% 55% 78%
Pressure 30.11 in1019.6 mb 30.06 in1017.9 mb -
Precipitation 0.00 in0.0 mm - -
Hour Temp Dew Point Humidity Winds Wind Gusts Pressure Precip Precip Rate Daily Precip Total
12:09 AM 63.9°F17.7°C 60.6°F15.9°C 89% 6.0 mph 9.7 kmh 11.0 mph17.7 kmh 30.11 in1019.6 mb 0.00 in0.0 mm 0.00 in0.0 mm 0.00 in0.0 mm
12:19 AM 63.7°F17.6°C 60.4°F15.8°C 89% 4.9 mph NNW7.9 kmh NNW 10.1 mph16.3 kmh 30.11 in1019.6 mb 0.00 in0.0 mm 0.00 in0.0 mm 0.00 in0.0 mm
12:29 AM 63.7°F17.6°C 60.4°F15.8°C 89% 4.9 mph 7.9 kmh 12.1 mph19.5 kmh 30.11 in1019.6 mb 0.00 in0.0 mm 0.00 in0.0 mm 0.00 in0.0 mm
12:39 AM 63.5°F17.5°C 60.3°F15.7°C 89% 8.1 mph 13.0 kmh 15.0 mph24.1 kmh 30.10 in1019.3 mb 0.00 in0.0 mm 0.00 in0.0 mm 0.00 in0.0 mm
12:49 AM 63.5°F17.5°C 60.3°F15.7°C 89% 6.9 mph NW11.1 kmh NW 15.0 mph24.1 kmh 30.10 in1019.3 mb 0.00 in0.0 mm 0.00 in0.0 mm 0.00 in0.0 mm
12:59 AM 63.5°F17.5°C 59.9°F15.5°C 88% 6.0 mph NNW9.7 kmh NNW 12.1 mph19.5 kmh 30.10 in1019.3 mb 0.00 in0.0 mm 0.00 in0.0 mm 0.00 in0.0 mm
01:09 AM 63.7°F17.6°C 60.1°F15.6°C 88% 6.0 mph NNW9.7 kmh NNW 13.0 mph20.9 kmh 30.10 in1019.3 mb 0.00 in0.0 mm 0.00 in0.0 mm 0.00 in0.0 mm
01:19 AM 63.7°F17.6°C 60.1°F15.6°C 88% 4.9 mph 7.9 kmh 12.1 mph19.5 kmh 30.09 in1019.0 mb 0.00 in0.0 mm 0.00 in0.0 mm 0.00 in0.0 mm
01:29 AM 63.7°F17.6°C 60.1°F15.6°C 88% 4.0 mph NNE6.4 kmh NNE 11.0 mph17.7 kmh 30.09 in1019.0 mb 0.00 in0.0 mm 0.00 in0.0 mm 0.00 in0.0 mm
01:39 AM 63.7°F17.6°C 60.1°F15.6°C 88% 2.9 mph N4.7 kmh N 8.9 mph14.3 kmh 30.09 in1019.0 mb 0.00 in0.0 mm 0.00 in0.0 mm 0.00 in0.0 mm
01:49 AM 63.7°F17.6°C 60.1°F15.6°C 88% 6.9 mph NE11.1 kmh NE 13.0 mph20.9 kmh 30.09 in1019.0 mb 0.00 in0.0 mm 0.00 in0.0 mm 0.00 in0.0 mm
01:59 AM 63.9°F17.7°C 60.3°F15.7°C 88% 6.0 mph WNW9.7 kmh WNW 13.0 mph20.9 kmh 30.09 in1019.0 mb 0.00 in0.0 mm 0.00 in0.0 mm 0.00 in0.0 mm
02:09 AM 63.7°F17.6°C 60.1°F15.6°C 88% 6.0 mph NNW9.7 kmh NNW 11.0 mph17.7 kmh 30.09 in1019.0 mb 0.00 in0.0 mm 0.00 in0.0 mm 0.00 in0.0 mm
02:19 AM 63.7°F17.6°C 60.4°F15.8°C 89% 4.9 mph NW7.9 kmh NW 12.1 mph19.5 kmh 30.09 in1019.0 mb 0.00 in0.0 mm 0.00 in0.0 mm 0.00 in0.0 mm
02:29 AM 63.7°F17.6°C 60.4°F15.8°C 89% 2.9 mph NW4.7 kmh NW 10.1 mph16.3 kmh 30.09 in1019.0 mb 0.00 in0.0 mm 0.00 in0.0 mm 0.00 in0.0 mm
02:40 AM 63.7°F17.6°C 60.4°F15.8°C 89% 6.0 mph NW9.7 kmh NW 11.0 mph17.7 kmh 30.09 in1019.0 mb 0.00 in0.0 mm 0.00 in0.0 mm 0.00 in0.0 mm
02:50 AM 63.7°F17.6°C 60.4°F15.8°C 89% 4.0 mph NNW6.4 kmh NNW 8.9 mph14.3 kmh 30.09 in1019.0 mb 0.00 in0.0 mm 0.00 in0.0 mm 0.00 in0.0 mm
03:00 AM 63.7°F17.6°C 60.4°F15.8°C 89% 4.0 mph NW6.4 kmh NW 8.9 mph14.3 kmh 30.09 in1019.0 mb 0.00 in0.0 mm 0.00 in0.0 mm 0.00 in0.0 mm
03:10 AM 63.7°F17.6°C 60.4°F15.8°C 89% 4.0 mph WNW6.4 kmh WNW 6.9 mph11.1 kmh 30.09 in1019.0 mb 0.00 in0.0 mm 0.00 in0.0 mm 0.00 in0.0 mm
03:20 AM 63.7°F17.6°C 60.4°F15.8°C 89% 4.0 mph NW6.4 kmh NW 8.9 mph14.3 kmh 30.09 in1019.0 mb 0.00 in0.0 mm 0.00 in0.0 mm 0.00 in0.0 mm
03:30 AM 63.7°F17.6°C 60.4°F15.8°C 89% 2.0 mph NNW3.2 kmh NNW 4.9 mph7.9 kmh 30.09 in1019.0 mb 0.00 in0.0 mm 0.00 in0.0 mm 0.00 in0.0 mm
03:40 AM 63.7°F17.6°C 60.6°F15.9°C 90% 2.0 mph NW3.2 kmh NW 4.9 mph7.9 kmh 30.09 in1019.0 mb 0.00 in0.0 mm 0.00 in0.0 mm 0.00 in0.0 mm
03:50 AM 63.7°F17.6°C 60.6°F15.9°C 90% 2.9 mph NW4.7 kmh NW 6.9 mph11.1 kmh 30.09 in1019.0 mb 0.00 in0.0 mm 0.00 in0.0 mm 0.00 in0.0 mm
04:00 AM 63.5°F17.5°C 60.4°F15.8°C 90% 2.9 mph NW4.7 kmh NW 8.1 mph13.0 kmh 30.08 in1018.6 mb 0.00 in0.0 mm 0.00 in0.0 mm 0.00 in0.0 mm
04:10 AM 63.3°F17.4°C 60.3°F15.7°C 90% 2.9 mph NW4.7 kmh NW 6.9 mph11.1 kmh 30.09 in1019.0 mb 0.00 in0.0 mm 0.00 in0.0 mm 0.00 in0.0 mm
04:20 AM 63.3°F17.4°C 60.3°F15.7°C 90% 2.9 mph NW4.7 kmh NW 4.9 mph7.9 kmh 30.09 in1019.0 mb 0.00 in0.0 mm 0.00 in0.0 mm 0.00 in0.0 mm
04:30 AM 63.3°F17.4°C 60.3°F15.7°C 90% 4.0 mph NNW6.4 kmh NNW 6.9 mph11.1 kmh 30.08 in1018.6 mb 0.00 in0.0 mm 0.00 in0.0 mm 0.00 in0.0 mm
04:40 AM 63.3°F17.4°C 60.3°F15.7°C 90% 2.9 mph W4.7 kmh W 6.0 mph9.7 kmh 30.09 in1019.0 mb 0.00 in0.0 mm 0.00 in0.0 mm 0.00 in0.0 mm
04:50 AM 63.3°F17.4°C 60.6°F15.9°C 91% 2.0 mph NW3.2 kmh NW 4.0 mph6.4 kmh 30.08 in1018.6 mb 0.00 in0.0 mm 0.00 in0.0 mm 0.00 in0.0 mm
05:00 AM 63.3°F17.4°C 60.6°F15.9°C 91% 2.0 mph NW3.2 kmh NW 4.0 mph6.4 kmh 30.08 in1018.6 mb 0.00 in0.0 mm 0.00 in0.0 mm 0.00 in0.0 mm
05:10 AM 63.1°F17.3°C 60.4°F15.8°C 91% 2.9 mph NW4.7 kmh NW 6.0 mph9.7 kmh 30.09 in1019.0 mb 0.00 in0.0 mm 0.00 in0.0 mm 0.00 in0.0 mm
05:20 AM 63.1°F17.3°C 60.4°F15.8°C 91% 2.9 mph WSW4.7 kmh WSW 8.1 mph13.0 kmh 30.09 in1019.0 mb 0.00 in0.0 mm 0.00 in0.0 mm 0.00 in0.0 mm
05:30 AM 63.0°F17.2°C 60.3°F15.7°C 91% 2.9 mph NW4.7 kmh NW 6.9 mph11.1 kmh 30.09 in1019.0 mb 0.00 in0.0 mm 0.00 in0.0 mm 0.00 in0.0 mm
05:40 AM 63.0°F17.2°C 60.3°F15.7°C 91% 2.0 mph WNW3.2 kmh WNW 4.9 mph7.9 kmh 30.09 in1019.0 mb 0.00 in0.0 mm 0.00 in0.0 mm 0.00 in0.0 mm
05:51 AM 62.8°F17.1°C 60.1°F15.6°C 91% 2.9 mph WSW4.7 kmh WSW 6.0 mph9.7 kmh 30.09 in1019.0 mb 0.00 in0.0 mm 0.00 in0.0 mm 0.00 in0.0 mm
06:01 AM 62.8°F17.1°C 60.1°F15.6°C 91% 2.9 mph WNW4.7 kmh WNW 6.0 mph9.7 kmh 30.09 in1019.0 mb 0.00 in0.0 mm 0.00 in0.0 mm 0.00 in0.0 mm
06:11 AM 62.4°F16.9°C 59.7°F15.4°C 91% 2.9 mph WNW4.7 kmh WNW 6.0 mph9.7 kmh 30.09 in1019.0 mb 0.00 in0.0 mm 0.00 in0.0 mm 0.00 in0.0 mm
06:21 AM 62.4°F16.9°C 59.7°F15.4°C 91% 2.0 mph SW3.2 kmh SW 4.9 mph7.9 kmh 30.09 in1019.0 mb 0.00 in0.0 mm 0.00 in0.0 mm 0.00 in0.0 mm
06:31 AM 62.2°F16.8°C 59.5°F15.3°C 91% 2.0 mph WNW3.2 kmh WNW 6.9 mph11.1 kmh 30.09 in1019.0 mb 0.00 in0.0 mm 0.00 in0.0 mm 0.00 in0.0 mm
06:41 AM 62.2°F16.8°C 59.9°F15.5°C 92% 2.0 mph W3.2 kmh W 6.0 mph9.7 kmh 30.09 in1019.0 mb 0.00 in0.0 mm 0.00 in0.0 mm 0.00 in0.0 mm
06:51 AM 62.2°F16.8°C 59.9°F15.5°C 92% 2.9 mph NW4.7 kmh NW 6.0 mph9.7 kmh 30.09 in1019.0 mb 0.00 in0.0 mm 0.00 in0.0 mm 0.00 in0.0 mm
07:01 AM 62.2°F16.8°C 59.9°F15.5°C 92% 2.0 mph NW3.2 kmh NW 6.9 mph11.1 kmh 30.09 in1019.0 mb 0.00 in0.0 mm 0.00 in0.0 mm 0.00 in0.0 mm
07:11 AM 62.4°F16.9°C 60.1°F15.6°C 92% 2.0 mph W3.2 kmh W 4.9 mph7.9 kmh 30.09 in1019.0 mb 0.00 in0.0 mm 0.00 in0.0 mm 0.00 in0.0 mm
07:21 AM 62.4°F16.9°C 60.1°F15.6°C 92% 2.9 mph NNW4.7 kmh NNW 4.0 mph6.4 kmh 30.10 in1019.3 mb 0.00 in0.0 mm 0.00 in0.0 mm 0.00 in0.0 mm
07:31 AM 62.6°F17.0°C 60.3°F15.7°C 92% 2.9 mph WNW4.7 kmh WNW 6.0 mph9.7 kmh 30.10 in1019.3 mb 0.00 in0.0 mm 0.00 in0.0 mm 0.00 in0.0 mm
07:41 AM 62.4°F16.9°C 59.7°F15.4°C 91% 2.9 mph WNW4.7 kmh WNW 6.9 mph11.1 kmh 30.10 in1019.3 mb 0.00 in0.0 mm 0.00 in0.0 mm 0.00 in0.0 mm
07:51 AM 62.8°F17.1°C 60.4°F15.8°C 92% 2.0 mph NW3.2 kmh NW 4.0 mph6.4 kmh 30.10 in1019.3 mb 0.00 in0.0 mm 0.00 in0.0 mm 0.00 in0.0 mm
08:01 AM 63.0°F17.2°C 60.3°F15.7°C 91% 2.0 mph WSW3.2 kmh WSW 4.9 mph7.9 kmh 30.10 in1019.3 mb 0.00 in0.0 mm 0.00 in0.0 mm 0.00 in0.0 mm
08:12 AM 63.1°F17.3°C 60.4°F15.8°C 91% 2.0 mph WNW3.2 kmh WNW 4.0 mph6.4 kmh 30.10 in1019.3 mb 0.00 in0.0 mm 0.00 in0.0 mm 0.00 in0.0 mm
08:22 AM 63.7°F17.6°C 61.0°F16.1°C 91% 0.9 mph NW1.4 kmh NW 4.0 mph6.4 kmh 30.10 in1019.3 mb 0.00 in0.0 mm 0.00 in0.0 mm 0.00 in0.0 mm
08:32 AM 64.2°F17.9°C 61.5°F16.4°C 91% 2.9 mph WNW4.7 kmh WNW 6.0 mph9.7 kmh 30.10 in1019.3 mb 0.00 in0.0 mm 0.00 in0.0 mm 0.00 in0.0 mm
08:42 AM 64.6°F18.1°C 61.5°F16.4°C 90% 2.0 mph WSW3.2 kmh WSW 4.9 mph7.9 kmh 30.10 in1019.3 mb 0.00 in0.0 mm 0.00 in0.0 mm 0.00 in0.0 mm
08:52 AM 65.1°F18.4°C 61.9°F16.6°C 89% 2.9 mph WNW4.7 kmh WNW 4.9 mph7.9 kmh 30.10 in1019.3 mb 0.00 in0.0 mm 0.00 in0.0 mm 0.00 in0.0 mm
09:02 AM 65.8°F18.8°C 61.9°F16.6°C 87% 4.0 mph N6.4 kmh N 8.1 mph13.0 kmh 30.10 in1019.3 mb 0.00 in0.0 mm 0.00 in0.0 mm 0.00 in0.0 mm
09:12 AM 67.6°F19.8°C 63.3°F17.4°C 86% 2.9 mph WSW4.7 kmh WSW 6.9 mph11.1 kmh 30.10 in1019.3 mb 0.00 in0.0 mm 0.00 in0.0 mm 0.00 in0.0 mm
09:22 AM 68.4°F20.2°C 63.0°F17.2°C 83% 2.9 mph NW4.7 kmh NW 4.9 mph7.9 kmh 30.10 in1019.3 mb 0.00 in0.0 mm 0.00 in0.0 mm 0.00 in0.0 mm
09:32 AM 69.3°F20.7°C 63.5°F17.5°C 82% 2.0 mph W3.2 kmh W 4.0 mph6.4 kmh 30.10 in1019.3 mb 0.00 in0.0 mm 0.00 in0.0 mm 0.00 in0.0 mm
09:42 AM 70.9°F21.6°C 63.7°F17.6°C 78% 2.9 mph SW4.7 kmh SW 6.0 mph9.7 kmh 30.10 in1019.3 mb 0.00 in0.0 mm 0.00 in0.0 mm 0.00 in0.0 mm
09:52 AM 72.0°F22.2°C 64.4°F18.0°C 77% 2.0 mph NNW3.2 kmh NNW 6.0 mph9.7 kmh 30.10 in1019.3 mb 0.00 in0.0 mm 0.00 in0.0 mm 0.00 in0.0 mm
10:02 AM 72.9°F22.7°C 64.0°F17.8°C 74% 2.9 mph NW4.7 kmh NW 8.9 mph14.3 kmh 30.10 in1019.3 mb 0.00 in0.0 mm 0.00 in0.0 mm 0.00 in0.0 mm
10:12 AM 73.6°F23.1°C 63.7°F17.6°C 71% 4.9 mph N7.9 kmh N 8.9 mph14.3 kmh 30.10 in1019.3 mb 0.00 in0.0 mm 0.00 in0.0 mm 0.00 in0.0 mm
10:22 AM 73.8°F23.2°C 63.7°F17.6°C 71% 4.9 mph NNE7.9 kmh NNE 8.9 mph14.3 kmh 30.10 in1019.3 mb 0.00 in0.0 mm 0.00 in0.0 mm 0.00 in0.0 mm
10:32 AM 74.8°F23.8°C 64.0°F17.8°C 69% 4.0 mph NNE6.4 kmh NNE 8.9 mph14.3 kmh 30.10 in1019.3 mb 0.00 in0.0 mm 0.00 in0.0 mm 0.00 in0.0 mm
10:42 AM 75.0°F23.9°C 64.2°F17.9°C 69% 4.9 mph NNE7.9 kmh NNE 11.0 mph17.7 kmh 30.10 in1019.3 mb 0.00 in0.0 mm 0.00 in0.0 mm 0.00 in0.0 mm
10:52 AM 75.0°F23.9°C 64.2°F17.9°C 69% 4.0 mph NE6.4 kmh NE 8.1 mph13.0 kmh 30.09 in1019.0 mb 0.00 in0.0 mm 0.00 in0.0 mm 0.00 in0.0 mm
11:02 AM 75.4°F24.1°C 64.6°F18.1°C 69% 4.9 mph ENE7.9 kmh ENE 10.1 mph16.3 kmh 30.09 in1019.0 mb 0.00 in0.0 mm 0.00 in0.0 mm 0.00 in0.0 mm
11:12 AM 75.9°F24.4°C 64.6°F18.1°C 68% 4.0 mph NE6.4 kmh NE 8.1 mph13.0 kmh 30.09 in1019.0 mb 0.00 in0.0 mm 0.00 in0.0 mm 0.00 in0.0 mm
11:22 AM 76.3°F24.6°C 65.8°F18.8°C 70% 4.0 mph NE6.4 kmh NE 8.9 mph14.3 kmh 30.09 in1019.0 mb 0.00 in0.0 mm 0.00 in0.0 mm 0.00 in0.0 mm
11:32 AM 77.7°F25.4°C 65.5°F18.6°C 66% 4.0 mph NE6.4 kmh NE 8.1 mph13.0 kmh 30.09 in1019.0 mb 0.00 in0.0 mm 0.00 in0.0 mm 0.00 in0.0 mm
11:42 AM 78.1°F25.6°C 64.9°F18.3°C 64% 2.9 mph ESE4.7 kmh ESE 8.1 mph13.0 kmh 30.08 in1018.6 mb 0.00 in0.0 mm 0.00 in0.0 mm 0.00 in0.0 mm
11:52 AM 78.6°F25.9°C 64.9°F18.3°C 63% 4.0 mph NE6.4 kmh NE 8.9 mph14.3 kmh 30.08 in1018.6 mb 0.00 in0.0 mm 0.00 in0.0 mm 0.00 in0.0 mm
12:02 PM 79.5°F26.4°C 65.3°F18.5°C 62% 4.0 mph N6.4 kmh N 8.1 mph13.0 kmh 30.08 in1018.6 mb 0.00 in0.0 mm 0.00 in0.0 mm 0.00 in0.0 mm
12:12 PM 80.8°F27.1°C 66.6°F19.2°C 62% 2.9 mph SW4.7 kmh SW 8.1 mph13.0 kmh 30.08 in1018.6 mb 0.00 in0.0 mm 0.00 in0.0 mm 0.00 in0.0 mm
12:22 PM 81.0°F27.2°C 64.8°F18.2°C 58% 4.0 mph NNW6.4 kmh NNW 10.1 mph16.3 kmh 30.08 in1018.6 mb 0.00 in0.0 mm 0.00 in0.0 mm 0.00 in0.0 mm
12:32 PM 81.7°F27.6°C 66.0°F18.9°C 59% 2.9 mph NW4.7 kmh NW 6.9 mph11.1 kmh 30.08 in1018.6 mb 0.00 in0.0 mm 0.00 in0.0 mm 0.00 in0.0 mm
12:42 PM 82.6°F28.1°C 66.4°F19.1°C 58% 4.0 mph W6.4 kmh W 8.1 mph13.0 kmh 30.07 in1018.3 mb 0.00 in0.0 mm 0.00 in0.0 mm 0.00 in0.0 mm
12:52 PM 82.8°F28.2°C 65.5°F18.6°C 56% 4.9 mph WNW7.9 kmh WNW 10.1 mph16.3 kmh 30.07 in1018.3 mb 0.00 in0.0 mm 0.00 in0.0 mm 0.00 in0.0 mm
01:02 PM 82.8°F28.2°C 65.5°F18.6°C 56% 6.0 mph WSW9.7 kmh WSW 13.0 mph20.9 kmh 30.07 in1018.3 mb 0.00 in0.0 mm 0.00 in0.0 mm 0.00 in0.0 mm
01:12 PM 82.8°F28.2°C 66.0°F18.9°C 57% 6.9 mph NW11.1 kmh NW 14.1 mph22.7 kmh 30.07 in1018.3 mb 0.00 in0.0 mm 0.00 in0.0 mm 0.00 in0.0 mm
01:22 PM 82.0°F27.8°C 64.8°F18.2°C 56% 8.1 mph NNE13.0 kmh NNE 15.0 mph24.1 kmh 30.07 in1018.3 mb 0.00 in0.0 mm 0.00 in0.0 mm 0.00 in0.0 mm
01:32 PM 82.0°F27.8°C 65.3°F18.5°C 57% 6.9 mph WNW11.1 kmh WNW 13.0 mph20.9 kmh 30.07 in1018.3 mb 0.00 in0.0 mm 0.00 in0.0 mm 0.00 in0.0 mm
01:42 PM 82.6°F28.1°C 64.8°F18.2°C 55% 8.1 mph NW13.0 kmh NW 12.1 mph19.5 kmh 30.07 in1018.3 mb 0.00 in0.0 mm 0.00 in0.0 mm 0.00 in0.0 mm
01:52 PM 82.2°F27.9°C 64.9°F18.3°C 56% 8.1 mph WNW13.0 kmh WNW 14.1 mph22.7 kmh 30.07 in1018.3 mb 0.00 in0.0 mm 0.00 in0.0 mm 0.00 in0.0 mm
02:02 PM 82.2°F27.9°C 64.4°F18.0°C 55% 8.1 mph NNW13.0 kmh NNW 14.1 mph22.7 kmh 30.07 in1018.3 mb 0.00 in0.0 mm 0.00 in0.0 mm 0.00 in0.0 mm
02:12 PM 82.0°F27.8°C 64.2°F17.9°C 55% 8.9 mph NW14.3 kmh NW 16.1 mph25.9 kmh 30.07 in1018.3 mb 0.00 in0.0 mm 0.00 in0.0 mm 0.00 in0.0 mm
02:23 PM 81.9°F27.7°C 64.6°F18.1°C 56% 8.1 mph NW13.0 kmh NW 13.0 mph20.9 kmh 30.07 in1018.3 mb 0.00 in0.0 mm 0.00 in0.0 mm 0.00 in0.0 mm
02:33 PM 82.0°F27.8°C 64.2°F17.9°C 55% 8.1 mph NW13.0 kmh NW 13.0 mph20.9 kmh 30.07 in1018.3 mb 0.00 in0.0 mm 0.00 in0.0 mm 0.00 in0.0 mm
02:43 PM 82.2°F27.9°C 64.4°F18.0°C 55% 6.9 mph NNW11.1 kmh NNW 13.0 mph20.9 kmh 30.07 in1018.3 mb 0.00 in0.0 mm 0.00 in0.0 mm 0.00 in0.0 mm
02:53 PM 81.3°F27.4°C 64.6°F18.1°C 57% 6.9 mph NW11.1 kmh NW 12.1 mph19.5 kmh 30.07 in1018.3 mb 0.00 in0.0 mm 0.00 in0.0 mm 0.00 in0.0 mm
03:03 PM 81.7°F27.6°C 64.4°F18.0°C 56% 8.1 mph NW13.0 kmh NW 12.1 mph19.5 kmh 30.07 in1018.3 mb 0.00 in0.0 mm 0.00 in0.0 mm 0.00 in0.0 mm
03:13 PM 81.7°F27.6°C 64.9°F18.3°C 57% 6.9 mph NW11.1 kmh NW 12.1 mph19.5 kmh 30.07 in1018.3 mb 0.00 in0.0 mm 0.00 in0.0 mm 0.00 in0.0 mm
03:23 PM 81.3°F27.4°C 64.6°F18.1°C 57% 6.0 mph NW9.7 kmh NW 13.0 mph20.9 kmh 30.07 in1018.3 mb 0.00 in0.0 mm 0.00 in0.0 mm 0.00 in0.0 mm
03:33 PM 81.1°F27.3°C 64.9°F18.3°C 58% 6.0 mph WSW9.7 kmh WSW 12.1 mph19.5 kmh 30.07 in1018.3 mb 0.00 in0.0 mm 0.00 in0.0 mm 0.00 in0.0 mm
03:43 PM 81.0°F27.2°C 64.2°F17.9°C 57% 6.0 mph NW9.7 kmh NW 14.1 mph22.7 kmh 30.07 in1018.3 mb 0.00 in0.0 mm 0.00 in0.0 mm 0.00 in0.0 mm
03:53 PM 81.0°F27.2°C 64.8°F18.2°C 58% 6.9 mph NNW11.1 kmh NNW 13.0 mph20.9 kmh 30.07 in1018.3 mb 0.00 in0.0 mm 0.00 in0.0 mm 0.00 in0.0 mm
04:03 PM 80.6°F27.0°C 64.0°F17.8°C 57% 6.9 mph NNW11.1 kmh NNW 14.1 mph22.7 kmh 30.07 in1018.3 mb 0.00 in0.0 mm 0.00 in0.0 mm 0.00 in0.0 mm
04:13 PM 79.9°F26.6°C 63.9°F17.7°C 58% 8.1 mph N13.0 kmh N 13.0 mph20.9 kmh 30.07 in1018.3 mb 0.00 in0.0 mm 0.00 in0.0 mm 0.00 in0.0 mm
04:23 PM 79.3°F26.3°C 62.8°F17.1°C 57% 8.1 mph NNW13.0 kmh NNW 13.0 mph20.9 kmh 30.07 in1018.3 mb 0.00 in0.0 mm 0.00 in0.0 mm 0.00 in0.0 mm
04:33 PM 79.5°F26.4°C 63.5°F17.5°C 58% 8.1 mph NW13.0 kmh NW 12.1 mph19.5 kmh 30.07 in1018.3 mb 0.00 in0.0 mm 0.00 in0.0 mm 0.00 in0.0 mm
04:43 PM 80.1°F26.7°C 63.5°F17.5°C 57% 6.9 mph NW11.1 kmh NW 12.1 mph19.5 kmh 30.07 in1018.3 mb 0.00 in0.0 mm 0.00 in0.0 mm 0.00 in0.0 mm
04:53 PM 79.3°F26.3°C 62.8°F17.1°C 57% 8.1 mph NW13.0 kmh NW 14.1 mph22.7 kmh 30.07 in1018.3 mb 0.00 in0.0 mm 0.00 in0.0 mm 0.00 in0.0 mm
05:03 PM 78.3°F25.7°C 63.3°F17.4°C 60% 8.1 mph W13.0 kmh W 13.0 mph20.9 kmh 30.07 in1018.3 mb 0.00 in0.0 mm 0.00 in0.0 mm 0.00 in0.0 mm
05:13 PM 78.3°F25.7°C 62.8°F17.1°C 59% 6.0 mph N9.7 kmh N 10.1 mph16.3 kmh 30.07 in1018.3 mb 0.00 in0.0 mm 0.00 in0.0 mm 0.00 in0.0 mm
05:23 PM 77.4°F25.2°C 62.8°F17.1°C 61% 8.1 mph W13.0 kmh W 12.1 mph19.5 kmh 30.06 in1017.9 mb 0.00 in0.0 mm 0.00 in0.0 mm 0.00 in0.0 mm
05:33 PM 76.5°F24.7°C 62.4°F16.9°C 62% 6.0 mph NW9.7 kmh NW 11.0 mph17.7 kmh 30.06 in1017.9 mb 0.00 in0.0 mm 0.00 in0.0 mm 0.00 in0.0 mm
05:43 PM 76.3°F24.6°C 63.1°F17.3°C 64% 4.9 mph NW7.9 kmh NW 10.1 mph16.3 kmh 30.06 in1017.9 mb 0.00 in0.0 mm 0.00 in0.0 mm 0.00 in0.0 mm
05:53 PM 76.3°F24.6°C 62.2°F16.8°C 62% 6.0 mph W9.7 kmh W 11.0 mph17.7 kmh 30.06 in1017.9 mb 0.00 in0.0 mm 0.00 in0.0 mm 0.00 in0.0 mm
06:03 PM 75.0°F23.9°C 62.1°F16.7°C 64% 4.9 mph WNW7.9 kmh WNW 8.9 mph14.3 kmh 30.06 in1017.9 mb 0.00 in0.0 mm 0.00 in0.0 mm 0.00 in0.0 mm
06:13 PM 75.0°F23.9°C 62.1°F16.7°C 64% 4.9 mph NW7.9 kmh NW 8.1 mph13.0 kmh 30.06 in1017.9 mb 0.00 in0.0 mm 0.00 in0.0 mm 0.00 in0.0 mm
06:23 PM 74.8°F23.8°C 61.3°F16.3°C 63% 4.9 mph NW7.9 kmh NW 11.0 mph17.7 kmh 30.06 in1017.9 mb 0.00 in0.0 mm 0.00 in0.0 mm 0.00 in0.0 mm
06:33 PM 74.3°F23.5°C 61.7°F16.5°C 65% 2.9 mph NW4.7 kmh NW 8.9 mph14.3 kmh 30.06 in1017.9 mb 0.00 in0.0 mm 0.00 in0.0 mm 0.00 in0.0 mm
06:43 PM 73.8°F23.2°C 61.3°F16.3°C 65% 2.0 mph W3.2 kmh W 6.0 mph9.7 kmh 30.06 in1017.9 mb 0.00 in0.0 mm 0.00 in0.0 mm 0.00 in0.0 mm
06:53 PM 72.3°F22.4°C 60.8°F16.0°C 67% 2.9 mph WNW4.7 kmh WNW 4.9 mph7.9 kmh 30.06 in1017.9 mb 0.00 in0.0 mm 0.00 in0.0 mm 0.00 in0.0 mm
07:03 PM 71.2°F21.8°C 60.6°F15.9°C 69% 2.0 mph NNW3.2 kmh NNW 4.0 mph6.4 kmh 30.06 in1017.9 mb 0.00 in0.0 mm 0.00 in0.0 mm 0.00 in0.0 mm
07:13 PM 70.3°F21.3°C 60.1°F15.6°C 70% 2.0 mph NW3.2 kmh NW 4.9 mph7.9 kmh 30.06 in1017.9 mb 0.00 in0.0 mm 0.00 in0.0 mm 0.00 in0.0 mm
07:23 PM 69.6°F20.9°C 60.3°F15.7°C 72% 2.9 mph W4.7 kmh W 6.0 mph9.7 kmh 30.06 in1017.9 mb 0.00 in0.0 mm 0.00 in0.0 mm 0.00 in0.0 mm
07:33 PM 69.1°F20.6°C 60.4°F15.8°C 74% 2.9 mph NW4.7 kmh NW 6.0 mph9.7 kmh 30.06 in1017.9 mb 0.00 in0.0 mm 0.00 in0.0 mm 0.00 in0.0 mm
07:43 PM 68.2°F20.1°C 59.9°F15.5°C 75% 0.9 mph WNW1.4 kmh WNW 2.9 mph4.7 kmh 30.06 in1017.9 mb 0.00 in0.0 mm 0.00 in0.0 mm 0.00 in0.0 mm
07:53 PM 67.5°F19.7°C 60.1°F15.6°C 77% 2.9 mph NW4.7 kmh NW 4.9 mph7.9 kmh 30.07 in1018.3 mb 0.00 in0.0 mm 0.00 in0.0 mm 0.00 in0.0 mm
08:03 PM 66.7°F19.3°C 60.1°F15.6°C 79% 2.9 mph WNW4.7 kmh WNW 6.9 mph11.1 kmh 30.07 in1018.3 mb 0.00 in0.0 mm 0.00 in0.0 mm 0.00 in0.0 mm
08:13 PM 66.4°F19.1°C 60.1°F15.6°C 80% 4.0 mph W6.4 kmh W 6.9 mph11.1 kmh 30.07 in1018.3 mb 0.00 in0.0 mm 0.00 in0.0 mm 0.00 in0.0 mm
08:23 PM 65.8°F18.8°C 60.3°F15.7°C 82% 4.0 mph W6.4 kmh W 6.9 mph11.1 kmh 30.08 in1018.6 mb 0.00 in0.0 mm 0.00 in0.0 mm 0.00 in0.0 mm
08:33 PM 65.5°F18.6°C 60.3°F15.7°C 83% 2.9 mph WNW4.7 kmh WNW 6.0 mph9.7 kmh 30.08 in1018.6 mb 0.00 in0.0 mm 0.00 in0.0 mm 0.00 in0.0 mm
08:43 PM 64.9°F18.3°C 59.9°F15.5°C 84% 2.9 mph WSW4.7 kmh WSW 6.0 mph9.7 kmh 30.09 in1019.0 mb 0.00 in0.0 mm 0.00 in0.0 mm 0.00 in0.0 mm
08:53 PM 64.8°F18.2°C 60.1°F15.6°C 85% 2.0 mph W3.2 kmh W 4.9 mph7.9 kmh 30.09 in1019.0 mb 0.00 in0.0 mm 0.00 in0.0 mm 0.00 in0.0 mm
09:03 PM 64.6°F18.1°C 60.3°F15.7°C 86% 0.9 mph NW1.4 kmh NW 2.9 mph4.7 kmh 30.09 in1019.0 mb 0.00 in0.0 mm 0.00 in0.0 mm 0.00 in0.0 mm
09:13 PM 64.0°F17.8°C 59.7°F15.4°C 86% 0.9 mph NW1.4 kmh NW 2.9 mph4.7 kmh 30.09 in1019.0 mb 0.00 in0.0 mm 0.00 in0.0 mm 0.00 in0.0 mm
09:24 PM 63.3°F17.4°C 59.0°F15.0°C 86% Calm Calm 0.9 mph1.4 kmh 30.09 in1019.0 mb 0.00 in0.0 mm 0.00 in0.0 mm 0.00 in0.0 mm
09:34 PM 62.8°F17.1°C 58.8°F14.9°C 87% Calm Calm 2.0 mph3.2 kmh 30.09 in1019.0 mb 0.00 in0.0 mm 0.00 in0.0 mm 0.00 in0.0 mm
09:44 PM 62.2°F16.8°C 58.6°F14.8°C 88% Calm Calm 0.9 mph1.4 kmh 30.09 in1019.0 mb 0.00 in0.0 mm 0.00 in0.0 mm 0.00 in0.0 mm
09:54 PM 61.9°F16.6°C 58.3°F14.6°C 88% Calm Calm 2.0 mph3.2 kmh 30.09 in1019.0 mb 0.00 in0.0 mm 0.00 in0.0 mm 0.00 in0.0 mm
10:04 PM 61.7°F16.5°C 58.5°F14.7°C 89% Calm Calm 0.9 mph1.4 kmh 30.09 in1019.0 mb 0.00 in0.0 mm 0.00 in0.0 mm 0.00 in0.0 mm
10:14 PM 61.5°F16.4°C 58.6°F14.8°C 90% 2.0 mph SW3.2 kmh SW 2.9 mph4.7 kmh 30.09 in1019.0 mb 0.00 in0.0 mm 0.00 in0.0 mm 0.00 in0.0 mm
10:34 PM 61.2°F16.2°C 58.5°F14.7°C 91% 2.0 mph SW3.2 kmh SW 2.9 mph4.7 kmh 30.08 in1018.6 mb 0.00 in0.0 mm 0.00 in0.0 mm 0.00 in0.0 mm
10:44 PM 60.8°F16.0°C 58.1°F14.5°C 91% 0.9 mph SW1.4 kmh SW 2.9 mph4.7 kmh 30.08 in1018.6 mb 0.00 in0.0 mm 0.00 in0.0 mm 0.00 in0.0 mm
10:54 PM 60.4°F15.8°C 57.7°F14.3°C 91% 0.9 mph SW1.4 kmh SW 2.9 mph4.7 kmh 30.08 in1018.6 mb 0.00 in0.0 mm 0.00 in0.0 mm 0.00 in0.0 mm
11:04 PM 60.4°F15.8°C 57.7°F14.3°C 91% Calm Calm -- 30.08 in1018.6 mb 0.00 in0.0 mm 0.00 in0.0 mm 0.00 in0.0 mm
11:14 PM 60.3°F15.7°C 57.6°F14.2°C 91% Calm Calm -- 30.08 in1018.6 mb 0.00 in0.0 mm 0.00 in0.0 mm 0.00 in0.0 mm
11:24 PM 60.1°F15.6°C 57.7°F14.3°C 92% 0.9 mph SW1.4 kmh SW 2.9 mph4.7 kmh 30.08 in1018.6 mb 0.00 in0.0 mm 0.00 in0.0 mm 0.00 in0.0 mm
11:34 PM 60.1°F15.6°C 57.7°F14.3°C 92% 0.9 mph SW1.4 kmh SW 2.0 mph3.2 kmh 30.07 in1018.3 mb 0.00 in0.0 mm 0.00 in0.0 mm 0.00 in0.0 mm
11:44 PM 59.9°F15.5°C 57.6°F14.2°C 92% Calm Calm 0.9 mph1.4 kmh 30.07 in1018.3 mb 0.00 in0.0 mm 0.00 in0.0 mm 0.00 in0.0 mm
11:55 PM 59.4°F15.2°C 57.0°F13.9°C 92% Calm Calm 0.9 mph1.4 kmh 30.07 in1018.3 mb 0.00 in0.0 mm 0.00 in0.0 mm 0.00 in0.0 mm